Celebrity Equinox — 9HXD9 — position and weather

sailwx.info

Track history (hours):
 
Tides and Currents Weather Stations Pressure Air Temp Water Temp Dewpoint Dewpoint Depression Visibility Wind Speed Wind Dir Waves Ship Positions

Celebrity Equinox

Last reported at 2014-Sep-16 21:10 UTC. Time now 2014-Sep-17 19:32 UTC.
Position N 40°53' E 013°25'.

Length 317 m; draft 9 m.

Type: Ship. MMSI: 249667000.

Date/timePositionNaut miles runAvg speedWind from/ knotsBaromVisibWave heightAir tempDewpointWater temp
2014-Sep-16 21:10N 40°53' E 013°25'1016.2
2014-Sep-16 20:33N 40°47' E 013°36'54 3.2
2014-Sep-16 03:33N 40°31' E 014°44'47112.1
2014-Sep-14 12:33N 37°23' E 023°58'3115.4
2014-Sep-14 10:34N 37°47' E 024°23'6415.7
2014-Sep-14 06:30N 38°40' E 025°08'1516.4
2014-Sep-14 05:33N 38°54' E 025°15'1816.4
2014-Sep-14 04:27N 39°11' E 025°24'18215.2
2014-Sep-13 16:30N 40°54' E 028°40'1516.3
2014-Sep-13 15:33N 40°59' E 028°60'203 4.6
2014-Sep-11 19:33N 38°45' E 025°41'3617.8
2014-Sep-11 17:32N 38°09' E 025°35'1818.2
2014-Sep-11 16:33N 37°52' E 025°27'1817.9
2014-Sep-11 15:33N 37°35' E 025°20'7 7.2
2014-Sep-11 14:32N 37°28' E 025°19'0 0.0
2014-Sep-11 13:31N 37°28' E 025°19'0 0.0
2014-Sep-11 12:31N 37°28' E 025°19'0 0.0
2014-Sep-11 11:30N 37°28' E 025°19'0 0.0
2014-Sep-11 10:33N 37°28' E 025°19'0 0.0
2014-Sep-11 09:32N 37°28' E 025°19'0 0.0
2014-Sep-11 08:32N 37°28' E 025°19'0 0.0
2014-Sep-11 07:32N 37°28' E 025°19'0 0.0
2014-Sep-11 06:31N 37°28' E 025°19'0 0.0
2014-Sep-11 05:31N 37°28' E 025°19'0 0.0
2014-Sep-11 04:33N 37°28' E 025°19'0 0.0
2014-Sep-11 03:33N 37°28' E 025°19'8 8.1
2014-Sep-11 02:33N 37°27' E 025°09'1716.6
2014-Sep-11 01:33N 37°17' E 024°53'1717.0
2014-Sep-11 00:33N 37°06' E 024°36'1716.7
2014-Sep-10 23:33N 36°56' E 024°19'1716.5
2014-Sep-10 22:31N 36°47' E 024°01'  
Track history (hours):
 
Tides and Currents Weather Stations Pressure Air Temp Water Temp Dewpoint Dewpoint Depression Visibility Wind Speed Wind Dir Waves Ship Positions

Celebrity Equinox

Last reported at 2014-Sep-16 21:10 UTC. Time now 2014-Sep-17 19:32 UTC.
Position N 40°53' E 013°25'.

Length 317 m; draft 9 m.

Type: Ship. MMSI: 249667000.

Date/timePositionNaut miles runAvg speedWind from/ knotsBaromVisibWave heightAir tempDewpointWater temp
2014-Sep-16 21:10N 40°53' E 013°25'1016.2
2014-Sep-16 20:33N 40°47' E 013°36'54 3.2
2014-Sep-16 03:33N 40°31' E 014°44'47112.1
2014-Sep-14 12:33N 37°23' E 023°58'3115.4
2014-Sep-14 10:34N 37°47' E 024°23'6415.7
2014-Sep-14 06:30N 38°40' E 025°08'1516.4
2014-Sep-14 05:33N 38°54' E 025°15'1816.4
2014-Sep-14 04:27N 39°11' E 025°24'18215.2
2014-Sep-13 16:30N 40°54' E 028°40'1516.3
2014-Sep-13 15:33N 40°59' E 028°60'203 4.6
2014-Sep-11 19:33N 38°45' E 025°41'3617.8
2014-Sep-11 17:32N 38°09' E 025°35'1818.2
2014-Sep-11 16:33N 37°52' E 025°27'1817.9
2014-Sep-11 15:33N 37°35' E 025°20'7 7.2
2014-Sep-11 14:32N 37°28' E 025°19'0 0.0
2014-Sep-11 13:31N 37°28' E 025°19'0 0.0
2014-Sep-11 12:31N 37°28' E 025°19'0 0.0
2014-Sep-11 11:30N 37°28' E 025°19'0 0.0
2014-Sep-11 10:33N 37°28' E 025°19'0 0.0
2014-Sep-11 09:32N 37°28' E 025°19'0 0.0
2014-Sep-11 08:32N 37°28' E 025°19'0 0.0
2014-Sep-11 07:32N 37°28' E 025°19'0 0.0
2014-Sep-11 06:31N 37°28' E 025°19'0 0.0
2014-Sep-11 05:31N 37°28' E 025°19'0 0.0
2014-Sep-11 04:33N 37°28' E 025°19'0 0.0
2014-Sep-11 03:33N 37°28' E 025°19'8 8.1
2014-Sep-11 02:33N 37°27' E 025°09'1716.6
2014-Sep-11 01:33N 37°17' E 024°53'1717.0
2014-Sep-11 00:33N 37°06' E 024°36'1716.7
2014-Sep-10 23:33N 36°56' E 024°19'1716.5
2014-Sep-10 22:31N 36°47' E 024°01'  

Dump ship's entire track history